Time;durP1;ratioP1;P1;durP2;ratioP2;P2;SDS_P1;SDS_P2;PMS_P1;PMS_P2;Temp;Humidity;BMP_temperature;BMP_pressure;BME280_temperature;BME280_humidity;BME280_pressure;Samples;Min_cycle;Max_cycle;Signal;HPM_P1;HPM_P2
2021/04/30 00:03:45;;;;;;;9.67;8.57;;;;;;;13.64;89.21;99388.97;20919115;28;20232;-70
2021/04/30 00:13:46;;;;;;;10.30;7.57;;;;;;;13.47;89.75;99392.34;20886528;28;20228;-64
2021/04/30 00:23:46;;;;;;;7.85;7.05;;;;;;;13.37;90.63;99407.56;20894215;28;20589;-65
2021/04/30 00:33:47;;;;;;;19.80;11.43;;;;;;;13.31;90.48;99391.06;20878580;28;20227;-64
2021/04/30 00:43:47;;;;;;;10.37;7.17;;;;;;;13.16;91.11;99388.94;20894622;28;20227;-64
2021/04/30 00:53:48;;;;;;;8.40;6.87;;;;;;;13.04;91.30;99411.41;20872707;28;20223;-65
2021/04/30 01:03:49;;;;;;;11.57;8.03;;;;;;;13.04;91.30;99412.22;20893449;28;20228;-63
2021/04/30 01:13:49;;;;;;;6.97;6.13;;;;;;;13.10;90.80;99416.22;20875430;28;20307;-64
2021/04/30 01:23:51;;;;;;;5.80;4.57;;;;;;;13.11;90.84;99412.56;20892208;28;20305;-63
2021/04/30 01:33:56;;;;;;;6.17;5.57;;;;;;;13.02;90.99;99416.06;20931177;28;20500;-66
2021/04/30 01:43:57;;;;;;;6.27;5.67;;;;;;;12.92;91.40;99429.41;20963764;28;20250;-64
2021/04/30 01:53:57;;;;;;;6.17;5.57;;;;;;;12.79;92.25;99436.81;20970503;28;20322;-63
2021/04/30 02:03:59;;;;;;;5.63;5.13;;;;;;;12.66;93.14;99428.16;20954143;28;20660;-69
2021/04/30 02:13:59;;;;;;;6.27;5.67;;;;;;;12.58;93.47;99400.22;20969860;28;20231;-63
2021/04/30 02:24:01;;;;;;;5.10;4.70;;;;;;;12.60;94.29;99430.38;20947657;28;20640;-67
2021/04/30 02:34:01;;;;;;;5.43;4.93;;;;;;;12.53;94.74;99428.38;20969762;28;20472;-64
2021/04/30 02:44:02;;;;;;;6.60;6.00;;;;;;;12.47;95.00;99439.59;20952063;28;20561;-68
2021/04/30 02:54:03;;;;;;;5.47;5.07;;;;;;;12.39;95.86;99432.25;20965624;28;20229;-65
2021/04/30 03:04:03;;;;;;;6.13;5.63;;;;;;;12.23;95.70;99450.56;20956345;28;20215;-69
2021/04/30 03:14:05;;;;;;;8.10;6.90;;;;;;;12.03;96.17;99454.09;20962726;28;20691;-68
2021/04/30 03:24:06;;;;;;;7.57;6.87;;;;;;;12.00;96.12;99449.84;20964460;28;20214;-67
2021/04/30 03:34:07;;;;;;;8.03;7.27;;;;;;;11.84;96.35;99458.28;20946578;28;20253;-64
2021/04/30 03:44:07;;;;;;;7.03;6.33;;;;;;;11.55;98.08;99483.88;20981153;28;20219;-64
2021/04/30 03:54:07;;;;;;;6.77;6.17;;;;;;;11.36;99.03;99505.03;20957966;28;22045;-64
2021/04/30 04:04:08;;;;;;;6.27;5.73;;;;;;;11.16;100.00;99515.50;20911885;28;20305;-65
2021/04/30 04:14:08;;;;;;;7.40;6.80;;;;;;;11.05;100.00;99504.81;20928078;28;20257;-63
2021/04/30 04:24:09;;;;;;;7.87;7.17;;;;;;;10.94;100.00;99525.31;20942008;28;20619;-63
2021/04/30 04:34:10;;;;;;;7.07;6.43;;;;;;;10.95;99.52;99517.19;20955171;28;20310;-65
2021/04/30 04:44:10;;;;;;;7.10;6.40;;;;;;;11.04;99.27;99527.13;20944202;28;20281;-64
2021/04/30 04:54:11;;;;;;;7.13;6.50;;;;;;;11.46;97.67;99532.72;20932313;28;20222;-64
2021/04/30 05:04:11;;;;;;;8.30;7.17;;;;;;;11.98;94.92;99544.53;20935591;28;20230;-62
2021/04/30 05:14:12;;;;;;;8.40;7.70;;;;;;;12.19;92.32;99553.47;20957809;28;20288;-63
2021/04/30 05:24:13;;;;;;;8.73;7.33;;;;;;;12.62;90.61;99558.72;20924586;28;20218;-65
2021/04/30 05:34:14;;;;;;;8.00;7.20;;;;;;;12.60;88.26;99580.25;20936321;28;20261;-65
2021/04/30 05:44:14;;;;;;;8.97;7.70;;;;;;;12.52;90.01;99577.41;20938888;28;20300;-67
2021/04/30 05:54:15;;;;;;;8.37;7.63;;;;;;;12.69;88.97;99588.47;20963207;28;20218;-68
2021/04/30 06:04:17;;;;;;;9.53;8.53;;;;;;;12.88;86.51;99588.63;20932265;28;20666;-66
2021/04/30 06:14:18;;;;;;;9.43;8.40;;;;;;;13.08;85.13;99601.16;20927848;28;20243;-66
2021/04/30 06:24:19;;;;;;;9.10;8.00;;;;;;;13.33;82.30;99611.47;20934172;28;21176;-68
2021/04/30 06:34:19;;;;;;;10.50;9.27;;;;;;;13.61;78.25;99630.53;20931611;28;20239;-65
2021/04/30 06:44:20;;;;;;;9.40;8.50;;;;;;;13.75;75.65;99614.06;20945697;28;20318;-65
2021/04/30 06:54:21;;;;;;;10.13;9.13;;;;;;;13.95;73.67;99618.50;20918687;28;20236;-65
2021/04/30 07:04:22;;;;;;;10.57;9.20;;;;;;;14.23;71.77;99616.03;20944775;28;20221;-66
2021/04/30 07:14:22;;;;;;;8.83;8.07;;;;;;;14.56;71.54;99638.97;20929849;28;20233;-65
2021/04/30 07:34:19;;;;;;;13.57;12.17;;;;;;;14.87;66.75;99653.09;20928957;27;20596;-66
2021/04/30 07:44:20;;;;;;;13.17;11.97;;;;;;;14.90;67.65;99663.56;20965938;27;20958;-64
2021/04/30 07:54:21;;;;;;;12.53;11.40;;;;;;;15.34;67.06;99670.16;20976421;28;20283;-70
2021/04/30 08:04:22;;;;;;;9.33;8.53;;;;;;;16.01;63.29;99666.44;20945390;27;20226;-64
2021/04/30 08:14:23;;;;;;;10.63;8.77;;;;;;;15.65;59.37;99662.75;20970110;28;20221;-62
2021/04/30 08:24:23;;;;;;;7.10;6.50;;;;;;;16.23;56.55;99676.78;20951292;27;20213;-63
2021/04/30 08:34:24;;;;;;;9.63;8.70;;;;;;;15.73;57.25;99679.84;20972971;28;20283;-67
2021/04/30 08:44:25;;;;;;;10.47;9.57;;;;;;;15.50;60.79;99695.47;20960139;28;20213;-64
2021/04/30 08:54:26;;;;;;;11.13;9.93;;;;;;;15.18;60.63;99705.72;20972115;28;20300;-63
2021/04/30 09:04:26;;;;;;;11.10;10.13;;;;;;;15.09;59.81;99706.56;20964806;28;20244;-64
2021/04/30 09:14:31;;;;;;;12.10;11.00;;;;;;;15.01;56.95;99676.84;20966875;28;20674;-65
2021/04/30 09:24:34;;;;;;;12.67;11.47;;;;;;;15.11;59.29;99732.28;20971399;28;20260;-66
2021/04/30 09:34:35;;;;;;;12.03;10.93;;;;;;;15.15;56.98;99738.22;20958833;28;20226;-64
2021/04/30 09:44:38;;;;;;;12.10;10.97;;;;;;;15.01;57.02;99714.47;20974221;28;20218;-62
2021/04/30 09:54:39;;;;;;;13.27;10.33;;;;;;;15.47;54.97;99744.13;20951906;28;20699;-63
2021/04/30 10:04:42;;;;;;;9.83;9.03;;;;;;;15.16;53.31;99739.94;20972708;28;20266;-63
2021/04/30 10:14:43;;;;;;;9.00;8.20;;;;;;;14.95;53.61;99742.75;20952167;28;20223;-64
2021/04/30 10:24:47;;;;;;;9.63;8.73;;;;;;;14.98;54.37;99779.22;20968666;28;20231;-64
2021/04/30 10:34:49;;;;;;;7.93;7.23;;;;;;;15.06;53.53;99776.72;20989205;28;20917;-66
2021/04/30 10:44:57;;;;;;;8.00;7.27;;;;;;;15.04;53.23;99762.56;20943892;28;20240;-64
2021/04/30 10:55:03;;;;;;;9.47;7.80;;;;;;;15.11;52.26;99806.69;20962637;28;20311;-66
2021/04/30 11:05:11;;;;;;;9.53;7.87;;;;;;;14.95;52.54;99819.84;20945769;28;20274;-68
2021/04/30 11:15:12;;;;;;;9.57;8.77;;;;;;;15.32;52.38;99825.41;20905307;28;20328;-64
2021/04/30 11:25:14;;;;;;;9.67;8.77;;;;;;;15.18;51.51;99823.97;20887627;28;20237;-65
2021/04/30 11:35:15;;;;;;;9.53;8.83;;;;;;;15.55;53.21;99847.50;20889988;28;20233;-64
2021/04/30 11:45:16;;;;;;;9.60;8.60;;;;;;;15.98;51.35;99855.94;20884764;28;22004;-61
2021/04/30 11:55:19;;;;;;;9.20;8.50;;;;;;;15.61;52.11;99860.38;20902988;28;20360;-60
2021/04/30 12:05:19;;;;;;;9.40;8.50;;;;;;;15.34;52.53;99883.38;20890329;28;20233;-60
2021/04/30 12:15:43;;;;;;;10.37;9.27;;;;;;;15.39;52.81;99897.28;20905618;28;20875;-60
2021/04/30 12:25:44;;;;;;;10.33;9.33;;;;;;;15.06;53.33;99868.09;20909362;28;20236;-62
2021/04/30 12:35:45;;;;;;;15.57;10.23;;;;;;;15.08;52.92;99871.47;20905760;28;20259;-60
2021/04/30 12:45:45;;;;;;;10.35;9.30;;;;;;;15.39;51.87;99886.53;20930500;28;20231;-65
2021/04/30 12:55:46;;;;;;;11.37;10.27;;;;;;;15.17;52.26;99892.16;20903307;28;20317;-70
2021/04/30 13:05:50;;;;;;;11.20;10.03;;;;;;;15.18;52.68;99885.78;20915639;28;20314;-64
2021/04/30 13:16:02;;;;;;;10.33;9.37;;;;;;;15.30;51.96;99882.00;20898023;28;20459;-61
2021/04/30 13:26:23;;;;;;;10.37;9.37;;;;;;;15.17;50.83;99862.59;20852571;28;20317;-66
2021/04/30 13:36:25;;;;;;;8.67;7.97;;;;;;;15.18;51.21;99872.34;20906772;28;20214;-65
2021/04/30 13:46:25;;;;;;;9.17;8.37;;;;;;;15.17;50.77;99891.28;20907578;28;20942;-65
2021/04/30 13:56:27;;;;;;;8.93;8.13;;;;;;;15.33;51.14;99895.16;20898352;28;20252;-62
2021/04/30 14:06:27;;;;;;;7.60;7.00;;;;;;;15.29;50.65;99930.50;20900191;28;21654;-63
2021/04/30 14:16:28;;;;;;;7.70;7.00;;;;;;;15.19;50.81;99921.56;20902992;28;20232;-63
2021/04/30 14:26:28;;;;;;;7.33;6.73;;;;;;;15.19;52.18;99943.94;20892122;28;20230;-61
2021/04/30 14:36:29;;;;;;;6.50;6.00;;;;;;;15.05;51.51;99958.59;20884642;28;20541;-63
2021/04/30 14:46:31;;;;;;;7.60;6.40;;;;;;;14.75;51.75;99935.25;20887796;27;20230;-62
2021/04/30 14:56:31;;;;;;;7.60;6.80;;;;;;;14.35;52.02;99963.84;20904622;28;20222;-60
2021/04/30 15:06:33;;;;;;;8.13;7.43;;;;;;;14.11;53.05;99974.00;20888073;28;21050;-63
2021/04/30 15:16:36;;;;;;;7.13;6.53;;;;;;;14.06;52.90;99958.28;20902748;28;20683;-61
2021/04/30 15:26:36;;;;;;;7.70;7.00;;;;;;;14.09;55.07;99979.47;20890976;28;20295;-60
2021/04/30 15:36:37;;;;;;;6.67;6.13;;;;;;;13.93;55.42;99984.41;20862328;28;20236;-59
2021/04/30 15:46:37;;;;;;;6.30;5.80;;;;;;;13.79;55.17;99960.56;20896724;28;20240;-61
2021/04/30 15:56:38;;;;;;;6.57;5.83;;;;;;;13.34;55.37;99977.66;20887558;28;20230;-59
2021/04/30 16:06:38;;;;;;;6.80;6.13;;;;;;;13.02;56.21;99995.44;20907622;28;21564;-60
2021/04/30 16:16:39;;;;;;;6.03;5.43;;;;;;;12.80;57.87;99995.44;20897357;28;20914;-59
2021/04/30 16:26:40;;;;;;;7.30;6.70;;;;;;;12.47;57.48;100006.91;20916333;28;20566;-58
2021/04/30 16:36:40;;;;;;;6.97;6.37;;;;;;;12.17;59.48;100010.13;20864023;28;20222;-66
2021/04/30 16:46:41;;;;;;;8.37;6.40;;;;;;;11.96;61.74;100022.41;20908476;28;20255;-61
2021/04/30 16:56:41;;;;;;;6.63;6.03;;;;;;;11.63;62.10;100020.41;20895436;28;20269;-59
2021/04/30 17:06:42;;;;;;;7.40;6.70;;;;;;;11.22;64.60;100042.09;20900548;28;20234;-64
2021/04/30 17:16:42;;;;;;;7.17;6.57;;;;;;;10.80;66.22;100041.47;20917336;28;20226;-69
2021/04/30 17:26:43;;;;;;;6.87;6.23;;;;;;;10.63;68.36;100049.78;20880730;28;20227;-63
2021/04/30 17:36:43;;;;;;;8.07;7.27;;;;;;;10.31;69.61;100060.84;20917293;28;20260;-67
2021/04/30 17:46:44;;;;;;;7.40;6.70;;;;;;;9.98;70.12;100058.59;20892729;28;20241;-68
2021/04/30 17:56:44;;;;;;;7.87;7.07;;;;;;;9.65;71.87;100072.31;20909968;28;20610;-63
2021/04/30 18:06:45;;;;;;;7.80;7.10;;;;;;;9.40;73.37;100080.16;20889761;28;20732;-61
2021/04/30 18:16:45;;;;;;;8.87;7.97;;;;;;;9.14;75.48;100081.78;20907471;28;20266;-63
2021/04/30 18:26:46;;;;;;;8.30;7.50;;;;;;;8.94;76.30;100085.66;20855663;28;20232;-62
2021/04/30 18:46:50;;;;;;;6.77;6.17;;;;;;;8.39;79.90;100103.22;20932340;27;20590;-64
2021/04/30 18:56:50;;;;;;;7.27;6.57;;;;;;;8.11;81.67;100115.41;20954669;27;20306;-66
2021/04/30 19:06:52;;;;;;;10.40;9.33;;;;;;;7.99;84.31;100121.44;20975846;27;20214;-61
2021/04/30 19:26:52;;;;;;;14.43;12.77;;;;;;;7.63;87.51;100134.13;20840781;27;20575;-67
2021/04/30 19:46:50;;;;;;;11.40;9.57;;;;;;;7.39;89.52;100157.53;20811276;27;20603;-66
2021/04/30 19:56:51;;;;;;;14.02;11.02;;;;;;;7.21;91.49;100152.31;20796786;28;20231;-70
2021/04/30 20:06:51;;;;;;;13.73;11.10;;;;;;;7.11;92.69;100144.91;20804021;28;20226;-66
2021/04/30 20:16:52;;;;;;;10.15;8.98;;;;;;;7.01;93.53;100151.63;20800923;28;20219;-66
2021/04/30 20:26:52;;;;;;;12.70;10.60;;;;;;;6.91;93.74;100161.00;20761645;28;20227;-65
2021/04/30 20:36:53;;;;;;;10.70;9.53;;;;;;;6.76;94.41;100168.78;20770041;28;20700;-64
2021/04/30 20:46:54;;;;;;;22.07;15.63;;;;;;;6.58;94.91;100179.47;20789414;28;20269;-64
2021/04/30 21:36:41;;;;;;;8.03;7.23;;;;;;;5.74;100.00;100202.06;20807281;27;21127;-60
2021/04/30 21:46:42;;;;;;;12.60;9.97;;;;;;;5.62;100.00;100218.50;20782562;28;20310;-61
2021/04/30 22:26:34;;;;;;;15.40;11.43;;;;;;;5.12;100.00;100250.72;20763764;28;20570;-61
2021/04/30 22:36:34;;;;;;;18.80;14.50;;;;;;;4.96;100.00;100229.34;20688274;28;20219;-62
2021/04/30 23:56:30;;;;;;;25.27;18.37;;;;;;;5.79;100.00;100293.59;20883300;27;20593;-67
